Latest Weather Observations for Lajamanu

IDD60801

Issued at 1:31 pm CST Thursday 8 December 2016 (issued every 30 minutes, with the page automatically refreshed every 10 minutes)

About weather observations | Map of weather stations | Latest weather observations for NT | Other Formats
Station Details ID: 014829 Name: LAJAMANU AIRPORT Lat: -18.33 Lon: 130.64 Height: 315.6 m
Data from the previous 72 hours. | See also: Recent months at Lajamanu
Date/Time
CST
Temp
°C
App
Temp
°C
Dew
Point
°C
Rel
Hum
%
Delta-T
°C
Wind Press
QNH
hPa
Press
MSL
hPa
Rain since
9am
mm
Dir  Spd
km/h
Gust
km/h
Spd
kts
Gust
kts
08/01:00pm 42.1 38.5 6.8 12 20.4 SW 15 24 8 13 1006.2 1003.6 0.0
08/12:30pm 40.4 37.9 6.7 13 19.3 SSE 9 17 5 9 1006.7 1004.1 0.0
08/12:00pm 40.5 38.0 6.7 13 19.4 W 9 19 5 10 1007.2 1004.6 0.0
08/11:30am 40.7 37.5 6.9 13 19.4 NW 13 24 7 13 1007.6 1005.0 0.0
08/11:00am 39.7 36.2 7.2 14 18.6 NNW 15 28 8 15 1007.8 1005.2 0.0
08/10:30am 39.2 34.9 6.8 14 18.5 NNW 19 28 10 15 1008.1 1005.5 0.0
08/10:00am 37.9 34.4 8.6 17 17.0 N 17 20 9 11 1008.2 1005.6 0.0
08/09:30am 36.7 35.7 12.2 23 15.0 ENE 9 11 5 6 1008.3 1005.7 0.0
08/09:00am 35.1 34.8 14.4 29 13.0 SE 9 19 5 10 1008.5 1006.0 0.0
08/08:30am 34.3 33.5 15.2 31 12.1 SE 13 19 7 10 1008.6 1006.1 0.0
08/08:00am 32.8 32.3 15.8 36 10.8 SSE 13 19 7 10 1008.6 1006.1 0.0
08/07:30am 31.1 31.2 15.5 39 9.8 S 9 15 5 8 1008.5 1006.0 0.0
08/07:00am 30.0 30.1 14.5 38 9.5 S 7 9 4 5 1008.5 1006.0 0.0
08/06:30am 28.3 28.3 14.2 42 8.6 S 7 9 4 5 1008.1 1005.5 0.0
08/06:00am 27.3 27.1 11.7 37 9.1 WNW 4 7 2 4 1007.8 1005.2 0.0
08/05:30am 28.3 27.5 10.9 34 10.1 S 6 7 3 4 1007.3 1004.7 0.0
08/05:00am 28.2 28.9 12.1 37 9.5 CALM 0 0 0 0 1006.8 1004.2 0.0
08/04:30am 28.8 29.2 11.4 34 10.2 CALM 0 0 0 0 1006.9 1004.3 0.0
08/04:00am 28.8 28.5 11.4 34 10.1 SW 4 7 2 4 1006.8 1004.2 0.0
08/03:30am 27.7 26.9 10.9 35 9.7 WSW 6 7 3 4 1006.6 1004.0 0.0
08/03:00am 27.5 26.4 10.7 35 9.7 NW 7 9 4 5 1006.5 1003.9 0.0
08/02:30am 30.0 28.3 10.0 29 11.5 N 9 11 5 6 1006.5 1003.9 0.0
08/02:00am 28.6 29.1 11.6 34 9.9 CALM 0 0 0 0 1006.6 1004.0 0.0
08/01:30am 29.0 28.4 11.6 34 10.2 NE 6 7 3 4 1006.8 1004.2 0.0
08/01:00am 29.5 28.8 12.0 34 10.3 ENE 7 7 4 4 1007.3 1004.7 0.0
08/12:30am 29.9 29.2 11.9 33 10.7 ESE 7 11 4 6 1007.4 1004.8 0.0
08/12:00am 29.9 28.6 9.9 29 11.5 N 7 7 4 4 1007.7 1005.1 0.0
 
Date/Time
CST
Temp
°C
App
Temp
°C
Dew
Point
°C
Rel
Hum
%
Delta-T
°C
Wind Press
QNH
hPa
Press
MSL
hPa
Rain since
9am
mm
Dir  Spd
km/h
Gust
km/h
Spd
kts
Gust
kts
07/11:30pm 31.0 29.3 9.8 27 12.2 N 9 11 5 6 1008.0 1005.4 0.0
07/11:00pm 30.7 29.6 10.1 28 11.9 NNW 6 7 3 4 1008.1 1005.5 0.0
07/10:30pm 31.0 29.3 9.8 27 12.2 NNW 9 9 5 5 1008.1 1005.5 0.0
07/10:00pm 31.5 30.0 9.1 25 12.7 NNW 7 9 4 5 1007.8 1005.2 0.0
07/09:30pm 32.8 30.9 8.9 23 13.7 N 9 9 5 5 1007.5 1004.9 0.0
07/09:00pm 33.5 31.6 8.9 22 14.1 N 9 11 5 6 1007.4 1004.8 0.0
07/08:30pm 33.0 31.0 7.1 20 14.4 NNW 7 9 4 5 1007.3 1004.7 0.0
07/08:00pm 35.1 32.9 6.4 17 15.9 N 7 9 4 5 1007.0 1004.4 0.0
07/07:30pm 37.2 34.4 5.3 14 17.6 N 9 15 5 8 1006.8 1004.2 0.0
07/07:00pm 38.3 35.3 6.1 14 18.1 NNE 11 20 6 11 1006.5 1003.9 0.0
07/06:30pm 39.2 35.0 5.7 13 18.8 N 17 26 9 14 1006.3 1003.7 0.0
07/06:00pm 40.2 35.9 5.4 12 19.5 NNE 17 30 9 16 1006.0 1003.5 0.0
07/05:30pm 40.8 36.2 5.8 12 19.8 N 19 32 10 17 1005.7 1003.2 0.0
07/05:00pm 40.8 36.3 7.0 13 19.4 NE 20 33 11 18 1005.8 1003.3 0.0
07/04:30pm 40.3 37.3 7.7 14 18.9 NE 13 19 7 10 1005.8 1003.3 0.0
07/04:00pm 39.7 35.4 7.2 14 18.6 NE 19 35 10 19 1006.0 1003.5 0.0
07/03:30pm 41.7 37.4 7.7 13 19.9 NE 20 35 11 19 1006.2 1003.6 0.0
07/03:00pm 41.3 37.7 8.5 14 19.3 NE 17 41 9 22 1006.5 1003.9 0.0
07/02:30pm 41.8 37.9 8.8 14 19.6 NNE 19 33 10 18 1006.8 1004.2 0.0
07/02:00pm 41.4 37.3 8.5 14 19.4 NE 20 35 11 19 1007.2 1004.6 0.0
07/01:30pm 41.8 38.2 9.9 15 19.2 NNE 19 28 10 15 1007.6 1005.0 0.0
07/01:00pm 41.0 37.0 9.2 15 18.9 ENE 20 33 11 18 1008.0 1005.4 0.0
07/12:30pm 39.5 37.1 9.9 17 17.7 NNW 13 20 7 11 1008.3 1005.7 0.0
07/12:00pm 39.2 36.9 10.5 18 17.2 NW 13 30 7 16 1009.0 1006.5 0.0
07/11:30am 38.8 36.1 10.2 18 17.1 N 15 24 8 13 1009.5 1006.9 0.0
07/11:00am 38.0 36.0 12.6 22 15.6 NW 15 28 8 15 1009.6 1007.0 0.0
07/10:30am 36.5 33.5 12.7 24 14.6 NNW 20 33 11 18 1010.1 1007.5 0.0
07/10:00am 36.0 34.5 14.1 27 13.7 NNW 15 22 8 12 1010.4 1007.8 0.0
07/09:30am 34.7 34.7 13.5 28 13.1 ENE 6 11 3 6 1010.8 1008.2 0.0
07/09:00am 33.0 33.0 14.1 32 11.7 NE 7 11 4 6 1011.1 1008.5 0.0
07/08:30am 31.9 32.0 14.5 34 10.8 SSE 7 11 4 6 1011.1 1008.5 0.0
07/08:00am 30.7 30.4 15.5 39 9.5 SE 11 15 6 8 1011.1 1008.5 0.0
07/07:30am 29.3 29.0 16.5 46 8.1 SE 13 17 7 9 1010.8 1008.2 0.0
07/07:00am 28.1 28.3 16.7 50 7.2 SE 11 13 6 7 1010.8 1008.2 0.0
07/06:30am 26.4 26.7 16.9 56 6.0 ESE 11 13 6 7 1010.5 1007.9 0.0
07/06:00am 26.4 26.5 16.6 55 6.1 ESE 11 13 6 7 1009.9 1007.3 0.0
07/05:30am 26.9 27.0 16.5 53 6.5 ESE 11 15 6 8 1009.6 1007.0 0.0
07/05:00am 27.8 27.6 16.7 50 7.0 SSE 13 19 7 10 1009.0 1006.5 0.0
07/04:30am 28.3 28.2 16.9 50 7.2 S 13 20 7 11 1008.8 1006.3 0.0
07/04:00am 28.7 28.8 16.6 48 7.6 S 11 15 6 8 1008.7 1006.2 0.0
07/03:30am 29.6 29.0 15.7 43 8.7 S 13 24 7 13 1008.5 1006.0 0.0
07/03:00am 30.3 28.9 10.8 30 11.4 S 9 15 5 8 1008.3 1005.7 0.0
07/02:30am 30.9 28.7 9.2 26 12.4 W 11 26 6 14 1008.2 1005.6 0.0
07/02:00am 31.3 27.5 7.7 23 13.1 NNE 17 22 9 12 1007.9 1005.3 0.0
07/01:30am 31.1 27.4 6.2 21 13.5 NNE 15 19 8 10 1008.0 1005.4 0.0
07/01:00am 31.5 27.5 5.1 19 14.1 NE 15 19 8 10 1008.4 1005.9 0.0
07/12:30am 29.0 26.1 6.4 24 12.2 ENE 11 13 6 7 1008.7 1006.2 0.0
07/12:00am 29.7 26.8 6.4 23 12.6 ENE 11 13 6 7 1008.9 1006.4 0.0
 
Date/Time
CST
Temp
°C
App
Temp
°C
Dew
Point
°C
Rel
Hum
%
Delta-T
°C
Wind Press
QNH
hPa
Press
MSL
hPa
Rain since
9am
mm
Dir  Spd
km/h
Gust
km/h
Spd
kts
Gust
kts
06/11:30pm 30.3 27.0 6.2 22 13.0 ENE 13 13 7 7 1009.3 1006.8 0.0
06/11:00pm 30.3 27.6 7.5 24 12.6 ENE 11 13 6 7 1009.5 1006.9 0.0
06/10:30pm 29.2 27.3 7.7 26 11.8 E 7 9 4 5 1009.2 1006.7 0.0
06/10:00pm 30.1 28.5 7.9 25 12.3 ENE 6 7 3 4 1009.0 1006.5 0.0
06/09:30pm 31.1 29.3 9.3 26 12.4 E 9 11 5 6 1008.6 1006.1 0.0
06/09:00pm 31.4 29.2 7.8 23 13.2 ESE 9 11 5 6 1008.3 1005.7 0.0
06/08:30pm 32.9 30.3 7.7 21 14.1 E 11 11 6 6 1007.9 1005.3 0.0
06/08:00pm 34.3 32.0 7.4 19 15.1 ENE 9 11 5 6 1007.5 1004.9 0.0
06/07:30pm 36.1 33.0 5.4 15 16.9 E 11 15 6 8 1007.1 1004.5 0.0
06/07:00pm 37.8 34.0 5.7 14 17.8 E 15 20 8 11 1006.7 1004.1 0.0
06/06:30pm 39.5 36.1 6.0 13 18.9 E 13 26 7 14 1006.3 1003.7 0.0
06/06:00pm 40.1 36.6 5.3 12 19.5 E 13 26 7 14 1006.3 1003.7 0.0
06/05:30pm 40.2 36.3 5.4 12 19.5 E 15 24 8 13 1006.2 1003.6 0.0
06/05:00pm 40.5 37.0 5.6 12 19.6 E 13 24 7 13 1006.2 1003.6 0.0
06/04:30pm 39.4 37.3 5.9 13 18.9 NNE 6 9 3 5 1006.2 1003.6 0.0
06/04:00pm 40.6 37.4 6.8 13 19.3 N 13 24 7 13 1006.4 1003.8 0.0
06/03:30pm 41.1 38.0 7.2 13 19.6 NE 13 24 7 13 1006.9 1004.3 0.0
06/03:00pm 40.3 38.3 8.7 15 18.6 E 9 17 5 9 1007.4 1004.8 0.0
06/02:30pm 39.7 38.3 10.9 18 17.4 SE 9 13 5 7 1007.9 1005.3 0.0
06/02:00pm 39.9 37.4 11.1 18 17.5 ENE 15 28 8 15 1008.4 1005.9 0.0
06/01:30pm 39.7 36.8 10.9 18 17.4 ESE 17 28 9 15 1008.8 1006.3 0.0
06/01:00pm 38.6 36.9 12.4 21 16.1 SSE 13 19 7 10 1009.3 1006.8 0.0
06/12:30pm 38.2 37.8 14.1 24 15.2 ESE 9 17 5 9 1009.9 1007.3 0.0
06/12:00pm 37.8 37.2 15.6 27 14.2 SE 13 22 7 12 1010.3 1007.7 0.0
06/11:30am 36.8 36.6 15.8 28 13.5 SE 11 17 6 9 1010.7 1008.1 0.0
06/11:00am 36.3 35.2 15.4 28 13.3 ESE 15 26 8 14 1011.1 1008.5 0.0
06/10:30am 34.9 34.3 15.7 31 12.2 ESE 13 26 7 14 1011.5 1009.0 0.0
06/10:00am 34.6 33.5 16.4 33 11.7 ESE 17 22 9 12 1011.8 1009.3 0.0
06/09:30am 33.6 31.8 16.0 34 11.2 ESE 20 30 11 16 1012.0 1009.5 0.0
06/09:00am 32.5 31.5 17.5 40 9.7 SE 19 26 10 14 1012.1 1009.6 2.4
06/08:30am 31.3 31.2 17.9 44 8.7 SE 15 22 8 12 1012.1 1009.6 2.4
06/08:00am 29.8 30.8 19.5 54 6.8 SSE 13 20 7 11 1012.1 1009.6 2.4
06/07:30am 27.9 29.4 19.7 61 5.4 S 11 13 6 7 1011.9 1009.4 2.4
06/07:00am 26.5 28.5 19.9 67 4.3 S 9 13 5 7 1011.7 1009.2 2.4
06/06:30am 25.4 27.9 20.2 73 3.4 S 7 11 4 6 1011.4 1008.9 2.4
06/06:00am 25.0 27.7 20.7 77 2.9 S 7 7 4 4 1011.5 1009.0 2.4
06/05:30am 24.9 27.7 20.8 78 2.7 SSW 7 9 4 5 1011.2 1008.6 2.4
06/05:00am 24.7 29.0 21.2 81 2.3 CALM 0 0 0 0 1011.0 1008.4 2.4
06/04:30am 24.8 29.1 21.1 80 2.5 CALM 0 0 0 0 1010.7 1008.1 2.4
06/04:00am 24.7 28.8 20.8 79 2.6 CALM 0 0 0 0 1010.2 1007.6 2.4
06/03:30am 25.3 27.7 20.8 76 3.0 NNW 9 9 5 5 1009.9 1007.3 2.4
06/03:00am 25.8 28.6 20.4 72 3.6 S 6 7 3 4 1009.8 1007.2 2.4
06/02:30am 25.9 28.4 20.2 71 3.8 SSE 7 9 4 5 1009.8 1007.2 2.4
06/02:00am 25.9 28.3 20.0 70 3.9 S 7 9 4 5 1010.0 1007.4 2.4
06/01:30am 26.3 28.8 20.2 69 4.0 S 7 9 4 5 1009.9 1007.3 2.4
06/01:00am 26.2 28.8 20.5 71 3.8 S 7 9 4 5 1010.0 1007.4 2.4
06/12:30am 26.3 29.0 20.6 71 3.8 WSW 7 9 4 5 1010.1 1007.5 2.4
06/12:00am 26.5 29.0 20.3 68 4.1 WSW 7 9 4 5 1010.4 1007.8 2.4
 
Date/Time
CST
Temp
°C
App
Temp
°C
Dew
Point
°C
Rel
Hum
%
Delta-T
°C
Wind Press
QNH
hPa
Press
MSL
hPa
Rain since
9am
mm
Dir  Spd
km/h
Gust
km/h
Spd
kts
Gust
kts
05/11:30pm 26.7 29.3 20.1 67 4.4 W 6 7 3 4 1010.6 1008.0 2.4
05/11:00pm 27.2 29.5 19.8 64 4.9 W 7 11 4 6 1010.6 1008.0 2.4
05/10:30pm 27.5 29.6 20.1 64 4.9 WSW 9 11 5 6 1010.7 1008.1 2.4
05/10:00pm 27.7 30.7 20.0 63 5.1 W 4 7 2 4 1010.6 1008.0 2.4
05/09:30pm 28.1 30.7 20.1 62 5.3 WNW 6 7 3 4 1010.3 1007.7 2.4
05/09:00pm 28.2 30.7 20.2 62 5.3 W 7 9 4 5 1009.8 1007.2 2.4
05/08:30pm 29.0 30.8 19.6 57 6.2 S 9 15 5 8 1009.6 1007.0 2.4
05/08:00pm 29.8 30.3 19.2 53 7.0 SW 15 20 8 11 1009.1 1006.6 2.4
05/07:30pm 30.0 31.2 19.1 52 7.2 WSW 11 20 6 11 1009.0 1006.5 2.4
05/07:00pm 30.8 30.2 18.8 48 7.9 SW 20 32 11 17 1008.5 1006.0 2.4
05/06:30pm 34.0 35.4 17.7 38 10.7 S 7 9 4 5 1007.7 1005.1 2.4
05/06:00pm 34.3 34.7 16.2 34 11.6 ENE 9 15 5 8 1007.5 1004.9 2.4
05/05:30pm 34.7 35.4 17.9 37 11.0 SE 11 17 6 9 1007.3 1004.7 2.4
05/05:00pm 34.6 35.6 16.9 35 11.4 SSW 7 9 4 5 1006.8 1004.2 2.4
05/04:30pm 34.1 37.1 20.1 43 9.5 WSW 4 11 2 6 1006.7 1004.1 2.4
05/04:26pm 34.0 38.0 21.4 47 8.6 WNW 2 7 1 4 1006.7 1004.1 2.4
05/04:00pm 29.0 32.5 22.2 66 4.6 W 7 9 4 5 1007.2 1004.6 2.4
05/03:30pm 26.4 27.5 21.2 73 3.5 SSE 17 24 9 13 1007.8 1005.2 1.6
05/03:05pm 30.3 28.0 16.7 44 8.6 SSE 24 59 13 32 1007.7 1005.1 0.0
05/03:01pm 35.4 35.0 16.2 32 12.3 WSW 13 48 7 26 1007.8 1005.2 0.0
05/03:00pm 37.6 37.4 14.8 25 14.5 WSW 9 28 5 15 1007.7 1005.1 0.0
05/02:30pm 36.9 36.2 14.2 25 14.3 WSW 11 20 6 11 1007.7 1005.1 0.0
05/02:00pm 37.4 35.7 14.7 26 14.4 WNW 17 24 9 13 1008.0 1005.4 0.0

Other Formats:

Comma delimited format used in spreadsheet applications
http://www.bom.gov.au/fwo/IDD60801/IDD60801.94231.axf

JavaScript Object Notation format (JSON) in row-major order
http://www.bom.gov.au/fwo/IDD60801/IDD60801.94231.json